sensor_id;sensor_type;location;lat;lon;timestamp;P1;durP1;ratioP1;P2;durP2;ratioP2
30080;SDS011;16902;50.816;12.828;2023-08-12T00:00:47;6.03;;;5.72;;
30080;SDS011;16902;50.816;12.828;2023-08-12T00:05:49;6.13;;;5.93;;
30080;SDS011;16902;50.816;12.828;2023-08-12T00:10:51;6.05;;;5.82;;
30080;SDS011;16902;50.816;12.828;2023-08-12T00:15:53;6.88;;;6.57;;
30080;SDS011;16902;50.816;12.828;2023-08-12T00:20:55;6.35;;;6.05;;
30080;SDS011;16902;50.816;12.828;2023-08-12T00:25:57;6.50;;;6.20;;
30080;SDS011;16902;50.816;12.828;2023-08-12T00:31:00;6.47;;;6.18;;
30080;SDS011;16902;50.816;12.828;2023-08-12T00:36:02;6.30;;;6.00;;
30080;SDS011;16902;50.816;12.828;2023-08-12T00:41:04;6.60;;;6.30;;
30080;SDS011;16902;50.816;12.828;2023-08-12T00:46:06;6.22;;;5.93;;
30080;SDS011;16902;50.816;12.828;2023-08-12T00:51:08;6.72;;;6.32;;
30080;SDS011;16902;50.816;12.828;2023-08-12T00:56:10;6.80;;;6.50;;
30080;SDS011;16902;50.816;12.828;2023-08-12T01:01:12;6.40;;;6.10;;
30080;SDS011;16902;50.816;12.828;2023-08-12T01:06:15;6.18;;;5.97;;
30080;SDS011;16902;50.816;12.828;2023-08-12T01:11:21;6.15;;;5.85;;
30080;SDS011;16902;50.816;12.828;2023-08-12T01:16:30;5.90;;;5.70;;
30080;SDS011;16902;50.816;12.828;2023-08-12T01:21:35;6.35;;;6.05;;
30080;SDS011;16902;50.816;12.828;2023-08-12T01:26:41;6.05;;;5.80;;
30080;SDS011;16902;50.816;12.828;2023-08-12T01:31:45;6.10;;;5.80;;
30080;SDS011;16902;50.816;12.828;2023-08-12T01:36:54;6.53;;;6.22;;
30080;SDS011;16902;50.816;12.828;2023-08-12T01:41:58;6.10;;;5.80;;
30080;SDS011;16902;50.816;12.828;2023-08-12T01:47:00;6.03;;;5.72;;
30080;SDS011;16902;50.816;12.828;2023-08-12T01:52:02;6.80;;;6.40;;
30080;SDS011;16902;50.816;12.828;2023-08-12T01:57:04;6.22;;;5.93;;
30080;SDS011;16902;50.816;12.828;2023-08-12T02:02:07;6.55;;;6.22;;
30080;SDS011;16902;50.816;12.828;2023-08-12T02:07:09;6.40;;;6.10;;
30080;SDS011;16902;50.816;12.828;2023-08-12T02:12:11;6.03;;;5.72;;
30080;SDS011;16902;50.816;12.828;2023-08-12T02:17:13;6.28;;;5.97;;
30080;SDS011;16902;50.816;12.828;2023-08-12T02:22:15;6.15;;;5.85;;
30080;SDS011;16902;50.816;12.828;2023-08-12T02:27:17;6.35;;;6.05;;
30080;SDS011;16902;50.816;12.828;2023-08-12T02:32:19;6.53;;;5.95;;
30080;SDS011;16902;50.816;12.828;2023-08-12T02:37:21;6.00;;;5.80;;
30080;SDS011;16902;50.816;12.828;2023-08-12T02:42:23;6.55;;;6.22;;
30080;SDS011;16902;50.816;12.828;2023-08-12T02:47:27;6.03;;;5.72;;
30080;SDS011;16902;50.816;12.828;2023-08-12T02:52:29;5.55;;;5.35;;
30080;SDS011;16902;50.816;12.828;2023-08-12T02:57:31;6.15;;;5.85;;
30080;SDS011;16902;50.816;12.828;2023-08-12T03:02:33;6.28;;;5.95;;
30080;SDS011;16902;50.816;12.828;2023-08-12T03:07:35;6.38;;;5.65;;
30080;SDS011;16902;50.816;12.828;2023-08-12T03:12:38;5.47;;;5.18;;
30080;SDS011;16902;50.816;12.828;2023-08-12T03:17:40;5.30;;;5.10;;
30080;SDS011;16902;50.816;12.828;2023-08-12T03:22:44;5.57;;;5.20;;
30080;SDS011;16902;50.816;12.828;2023-08-12T03:27:46;5.07;;;4.82;;
30080;SDS011;16902;50.816;12.828;2023-08-12T03:32:48;5.65;;;5.45;;
30080;SDS011;16902;50.816;12.828;2023-08-12T03:37:51;5.47;;;5.18;;
30080;SDS011;16902;50.816;12.828;2023-08-12T03:42:54;5.70;;;5.40;;
30080;SDS011;16902;50.816;12.828;2023-08-12T03:47:59;5.43;;;5.13;;
30080;SDS011;16902;50.816;12.828;2023-08-12T03:53:01;5.60;;;5.30;;
30080;SDS011;16902;50.816;12.828;2023-08-12T03:58:03;6.25;;;5.85;;
30080;SDS011;16902;50.816;12.828;2023-08-12T04:03:06;5.20;;;5.00;;
30080;SDS011;16902;50.816;12.828;2023-08-12T04:08:08;5.03;;;4.72;;
30080;SDS011;16902;50.816;12.828;2023-08-12T04:13:11;5.50;;;5.20;;
30080;SDS011;16902;50.816;12.828;2023-08-12T04:18:12;5.47;;;5.03;;
30080;SDS011;16902;50.816;12.828;2023-08-12T04:23:14;5.25;;;5.03;;
30080;SDS011;16902;50.816;12.828;2023-08-12T04:28:17;5.45;;;5.15;;
30080;SDS011;16902;50.816;12.828;2023-08-12T04:33:22;4.55;;;4.30;;
30080;SDS011;16902;50.816;12.828;2023-08-12T04:38:25;10.15;;;5.28;;
30080;SDS011;16902;50.816;12.828;2023-08-12T04:43:29;5.68;;;5.38;;
30080;SDS011;16902;50.816;12.828;2023-08-12T04:48:32;5.85;;;5.45;;
30080;SDS011;16902;50.816;12.828;2023-08-12T04:53:35;5.13;;;4.82;;
30080;SDS011;16902;50.816;12.828;2023-08-12T04:58:37;5.18;;;4.97;;
30080;SDS011;16902;50.816;12.828;2023-08-12T05:03:40;4.82;;;4.63;;
30080;SDS011;16902;50.816;12.828;2023-08-12T05:08:43;5.00;;;4.72;;
30080;SDS011;16902;50.816;12.828;2023-08-12T05:13:45;4.38;;;4.18;;
30080;SDS011;16902;50.816;12.828;2023-08-12T05:18:48;5.22;;;4.82;;
30080;SDS011;16902;50.816;12.828;2023-08-12T05:23:51;4.35;;;4.15;;
30080;SDS011;16902;50.816;12.828;2023-08-12T05:28:52;4.70;;;4.40;;
30080;SDS011;16902;50.816;12.828;2023-08-12T05:33:54;4.85;;;4.53;;
30080;SDS011;16902;50.816;12.828;2023-08-12T05:38:56;4.50;;;4.30;;
30080;SDS011;16902;50.816;12.828;2023-08-12T05:43:58;5.30;;;5.00;;
30080;SDS011;16902;50.816;12.828;2023-08-12T05:49:00;5.50;;;5.10;;
30080;SDS011;16902;50.816;12.828;2023-08-12T05:54:02;5.40;;;5.10;;
30080;SDS011;16902;50.816;12.828;2023-08-12T05:59:04;5.70;;;5.40;;
30080;SDS011;16902;50.816;12.828;2023-08-12T06:04:06;5.93;;;5.72;;
30080;SDS011;16902;50.816;12.828;2023-08-12T06:09:08;6.25;;;5.95;;
30080;SDS011;16902;50.816;12.828;2023-08-12T06:14:10;6.60;;;6.30;;
30080;SDS011;16902;50.816;12.828;2023-08-12T06:19:12;7.53;;;7.15;;
30080;SDS011;16902;50.816;12.828;2023-08-12T06:24:13;7.07;;;6.78;;
30080;SDS011;16902;50.816;12.828;2023-08-12T06:29:15;7.47;;;7.18;;
30080;SDS011;16902;50.816;12.828;2023-08-12T06:34:18;7.28;;;6.97;;
30080;SDS011;16902;50.816;12.828;2023-08-12T06:39:19;7.30;;;7.00;;
30080;SDS011;16902;50.816;12.828;2023-08-12T06:44:21;7.82;;;7.53;;
30080;SDS011;16902;50.816;12.828;2023-08-12T06:49:23;8.65;;;8.25;;
30080;SDS011;16902;50.816;12.828;2023-08-12T06:54:25;8.70;;;8.30;;
30080;SDS011;16902;50.816;12.828;2023-08-12T06:59:27;9.27;;;8.88;;
30080;SDS011;16902;50.816;12.828;2023-08-12T07:04:29;9.98;;;9.57;;
30080;SDS011;16902;50.816;12.828;2023-08-12T07:09:31;9.85;;;9.45;;
30080;SDS011;16902;50.816;12.828;2023-08-12T07:14:33;9.75;;;9.35;;
30080;SDS011;16902;50.816;12.828;2023-08-12T07:19:35;11.95;;;11.45;;
30080;SDS011;16902;50.816;12.828;2023-08-12T07:24:37;12.68;;;12.02;;
30080;SDS011;16902;50.816;12.828;2023-08-12T07:29:39;13.35;;;12.65;;
30080;SDS011;16902;50.816;12.828;2023-08-12T07:34:40;13.48;;;12.88;;
30080;SDS011;16902;50.816;12.828;2023-08-12T07:39:42;14.10;;;13.50;;
30080;SDS011;16902;50.816;12.828;2023-08-12T07:44:44;13.52;;;12.95;;
30080;SDS011;16902;50.816;12.828;2023-08-12T07:49:47;13.88;;;13.18;;
30080;SDS011;16902;50.816;12.828;2023-08-12T07:54:49;13.90;;;13.30;;
30080;SDS011;16902;50.816;12.828;2023-08-12T07:59:51;13.93;;;13.38;;
30080;SDS011;16902;50.816;12.828;2023-08-12T08:04:52;13.98;;;13.38;;
30080;SDS011;16902;50.816;12.828;2023-08-12T08:09:54;13.73;;;13.13;;
30080;SDS011;16902;50.816;12.828;2023-08-12T08:14:56;13.43;;;12.93;;
30080;SDS011;16902;50.816;12.828;2023-08-12T08:19:58;14.10;;;13.50;;
30080;SDS011;16902;50.816;12.828;2023-08-12T08:25:00;13.82;;;13.23;;
30080;SDS011;16902;50.816;12.828;2023-08-12T08:30:02;14.10;;;13.50;;
30080;SDS011;16902;50.816;12.828;2023-08-12T08:35:05;13.90;;;13.30;;
30080;SDS011;16902;50.816;12.828;2023-08-12T08:40:07;13.68;;;13.07;;
30080;SDS011;16902;50.816;12.828;2023-08-12T08:45:11;13.15;;;12.65;;
30080;SDS011;16902;50.816;12.828;2023-08-12T08:50:16;13.23;;;12.73;;
30080;SDS011;16902;50.816;12.828;2023-08-12T08:55:19;13.25;;;12.75;;
30080;SDS011;16902;50.816;12.828;2023-08-12T09:00:24;13.80;;;13.25;;
30080;SDS011;16902;50.816;12.828;2023-08-12T09:05:27;13.50;;;13.00;;
30080;SDS011;16902;50.816;12.828;2023-08-12T09:10:30;13.85;;;13.27;;
30080;SDS011;16902;50.816;12.828;2023-08-12T09:15:33;13.90;;;13.30;;
30080;SDS011;16902;50.816;12.828;2023-08-12T09:20:35;14.00;;;13.40;;
30080;SDS011;16902;50.816;12.828;2023-08-12T09:25:47;14.18;;;13.57;;
30080;SDS011;16902;50.816;12.828;2023-08-12T09:30:50;14.40;;;13.80;;
30080;SDS011;16902;50.816;12.828;2023-08-12T09:35:54;13.73;;;13.23;;
30080;SDS011;16902;50.816;12.828;2023-08-12T09:40:58;14.07;;;13.48;;
30080;SDS011;16902;50.816;12.828;2023-08-12T09:46:00;13.90;;;13.38;;
30080;SDS011;16902;50.816;12.828;2023-08-12T09:51:04;13.82;;;13.23;;
30080;SDS011;16902;50.816;12.828;2023-08-12T09:56:07;14.32;;;13.73;;
30080;SDS011;16902;50.816;12.828;2023-08-12T10:01:13;13.80;;;13.30;;
30080;SDS011;16902;50.816;12.828;2023-08-12T10:06:20;13.95;;;13.35;;
30080;SDS011;16902;50.816;12.828;2023-08-12T10:11:22;13.75;;;13.25;;
30080;SDS011;16902;50.816;12.828;2023-08-12T10:16:24;13.90;;;13.35;;
30080;SDS011;16902;50.816;12.828;2023-08-12T10:21:27;13.45;;;12.95;;
30080;SDS011;16902;50.816;12.828;2023-08-12T10:26:30;14.15;;;13.55;;
30080;SDS011;16902;50.816;12.828;2023-08-12T10:31:34;13.60;;;13.02;;
30080;SDS011;16902;50.816;12.828;2023-08-12T10:36:40;13.68;;;13.13;;
30080;SDS011;16902;50.816;12.828;2023-08-12T10:42:00;14.10;;;13.52;;
30080;SDS011;16902;50.816;12.828;2023-08-12T10:47:05;14.40;;;13.80;;
30080;SDS011;16902;50.816;12.828;2023-08-12T10:52:29;13.75;;;13.18;;
30080;SDS011;16902;50.816;12.828;2023-08-12T10:57:35;13.77;;;13.18;;
30080;SDS011;16902;50.816;12.828;2023-08-12T11:02:43;14.05;;;13.45;;
30080;SDS011;16902;50.816;12.828;2023-08-12T11:07:48;14.10;;;13.50;;
30080;SDS011;16902;50.816;12.828;2023-08-12T11:13:02;14.38;;;13.77;;
30080;SDS011;16902;50.816;12.828;2023-08-12T11:18:06;14.45;;;13.85;;
30080;SDS011;16902;50.816;12.828;2023-08-12T11:23:12;14.50;;;13.90;;
30080;SDS011;16902;50.816;12.828;2023-08-12T11:28:14;14.02;;;13.52;;
30080;SDS011;16902;50.816;12.828;2023-08-12T11:33:16;14.38;;;13.77;;
30080;SDS011;16902;50.816;12.828;2023-08-12T11:38:20;14.45;;;13.85;;
30080;SDS011;16902;50.816;12.828;2023-08-12T11:43:22;14.48;;;13.88;;
30080;SDS011;16902;50.816;12.828;2023-08-12T11:48:24;14.38;;;13.77;;
30080;SDS011;16902;50.816;12.828;2023-08-12T11:53:28;13.98;;;13.38;;
30080;SDS011;16902;50.816;12.828;2023-08-12T11:58:36;14.38;;;13.77;;
30080;SDS011;16902;50.816;12.828;2023-08-12T12:03:53;14.70;;;14.00;;
30080;SDS011;16902;50.816;12.828;2023-08-12T12:08:56;14.38;;;13.77;;
30080;SDS011;16902;50.816;12.828;2023-08-12T12:14:01;14.90;;;14.30;;
30080;SDS011;16902;50.816;12.828;2023-08-12T12:19:04;15.40;;;14.70;;
30080;SDS011;16902;50.816;12.828;2023-08-12T12:24:08;16.30;;;15.50;;
30080;SDS011;16902;50.816;12.828;2023-08-12T12:29:10;14.93;;;14.32;;
30080;SDS011;16902;50.816;12.828;2023-08-12T12:34:15;14.63;;;14.02;;
30080;SDS011;16902;50.816;12.828;2023-08-12T12:39:19;13.80;;;13.30;;
30080;SDS011;16902;50.816;12.828;2023-08-12T12:44:21;14.20;;;13.60;;
30080;SDS011;16902;50.816;12.828;2023-08-12T12:49:23;13.65;;;13.15;;
30080;SDS011;16902;50.816;12.828;2023-08-12T12:54:25;13.60;;;13.10;;
30080;SDS011;16902;50.816;12.828;2023-08-12T12:59:27;14.00;;;13.43;;
30080;SDS011;16902;50.816;12.828;2023-08-12T13:04:29;13.57;;;13.07;;
30080;SDS011;16902;50.816;12.828;2023-08-12T13:09:31;14.27;;;13.68;;
30080;SDS011;16902;50.816;12.828;2023-08-12T13:14:33;14.05;;;13.45;;
30080;SDS011;16902;50.816;12.828;2023-08-12T13:19:35;13.70;;;13.20;;
30080;SDS011;16902;50.816;12.828;2023-08-12T13:24:37;14.13;;;13.52;;
30080;SDS011;16902;50.816;12.828;2023-08-12T13:29:39;14.13;;;13.52;;
30080;SDS011;16902;50.816;12.828;2023-08-12T13:34:41;14.20;;;13.60;;
30080;SDS011;16902;50.816;12.828;2023-08-12T13:39:44;14.40;;;13.80;;
30080;SDS011;16902;50.816;12.828;2023-08-12T13:44:46;13.75;;;13.15;;
30080;SDS011;16902;50.816;12.828;2023-08-12T13:49:48;13.88;;;13.38;;
30080;SDS011;16902;50.816;12.828;2023-08-12T13:54:50;14.73;;;14.02;;
30080;SDS011;16902;50.816;12.828;2023-08-12T13:59:52;15.05;;;14.35;;
30080;SDS011;16902;50.816;12.828;2023-08-12T14:04:54;14.68;;;14.07;;
30080;SDS011;16902;50.816;12.828;2023-08-12T14:09:56;14.50;;;13.90;;
30080;SDS011;16902;50.816;12.828;2023-08-12T14:14:59;14.50;;;13.90;;
30080;SDS011;16902;50.816;12.828;2023-08-12T14:20:01;15.20;;;14.60;;
30080;SDS011;16902;50.816;12.828;2023-08-12T14:25:06;14.38;;;13.77;;
30080;SDS011;16902;50.816;12.828;2023-08-12T14:30:09;14.85;;;14.25;;
30080;SDS011;16902;50.816;12.828;2023-08-12T14:35:12;14.60;;;14.00;;
30080;SDS011;16902;50.816;12.828;2023-08-12T14:40:13;13.95;;;13.38;;
30080;SDS011;16902;50.816;12.828;2023-08-12T14:45:15;13.27;;;12.77;;
30080;SDS011;16902;50.816;12.828;2023-08-12T14:50:17;14.27;;;13.68;;
30080;SDS011;16902;50.816;12.828;2023-08-12T14:55:19;13.60;;;13.10;;
30080;SDS011;16902;50.816;12.828;2023-08-12T15:00:21;13.52;;;13.02;;
30080;SDS011;16902;50.816;12.828;2023-08-12T15:05:23;13.93;;;13.35;;
30080;SDS011;16902;50.816;12.828;2023-08-12T15:10:25;14.02;;;13.43;;
30080;SDS011;16902;50.816;12.828;2023-08-12T15:15:30;14.57;;;13.98;;
30080;SDS011;16902;50.816;12.828;2023-08-12T15:20:32;14.90;;;14.30;;
30080;SDS011;16902;50.816;12.828;2023-08-12T15:25:34;15.50;;;14.80;;
30080;SDS011;16902;50.816;12.828;2023-08-12T15:30:36;15.43;;;14.75;;
30080;SDS011;16902;50.816;12.828;2023-08-12T15:35:38;15.25;;;14.55;;
30080;SDS011;16902;50.816;12.828;2023-08-12T15:40:40;15.50;;;14.80;;
30080;SDS011;16902;50.816;12.828;2023-08-12T15:45:42;8.25;;;7.85;;
30080;SDS011;16902;50.816;12.828;2023-08-12T15:50:44;7.35;;;7.15;;
30080;SDS011;16902;50.816;12.828;2023-08-12T15:55:46;2.60;;;2.50;;
30080;SDS011;16902;50.816;12.828;2023-08-12T16:00:48;1.80;;;1.70;;
30080;SDS011;16902;50.816;12.828;2023-08-12T16:05:50;1.50;;;1.50;;
30080;SDS011;16902;50.816;12.828;2023-08-12T16:10:52;1.60;;;1.60;;
30080;SDS011;16902;50.816;12.828;2023-08-12T16:15:54;1.60;;;1.50;;
30080;SDS011;16902;50.816;12.828;2023-08-12T16:20:56;2.85;;;2.60;;
30080;SDS011;16902;50.816;12.828;2023-08-12T16:25:58;2.10;;;2.00;;
30080;SDS011;16902;50.816;12.828;2023-08-12T16:31:01;1.67;;;1.60;;
30080;SDS011;16902;50.816;12.828;2023-08-12T16:36:03;1.50;;;1.40;;
30080;SDS011;16902;50.816;12.828;2023-08-12T16:41:05;1.40;;;1.40;;
30080;SDS011;16902;50.816;12.828;2023-08-12T16:46:07;1.45;;;1.45;;
30080;SDS011;16902;50.816;12.828;2023-08-12T16:51:09;1.50;;;1.50;;
30080;SDS011;16902;50.816;12.828;2023-08-12T16:56:11;1.80;;;1.70;;
30080;SDS011;16902;50.816;12.828;2023-08-12T17:01:13;1.70;;;1.70;;
30080;SDS011;16902;50.816;12.828;2023-08-12T17:06:15;2.63;;;2.53;;
30080;SDS011;16902;50.816;12.828;2023-08-12T17:11:17;3.90;;;3.60;;
30080;SDS011;16902;50.816;12.828;2023-08-12T17:16:19;2.20;;;2.00;;
30080;SDS011;16902;50.816;12.828;2023-08-12T17:21:21;1.90;;;1.80;;
30080;SDS011;16902;50.816;12.828;2023-08-12T17:26:23;1.63;;;1.63;;
30080;SDS011;16902;50.816;12.828;2023-08-12T17:31:25;3.10;;;3.00;;
30080;SDS011;16902;50.816;12.828;2023-08-12T17:36:27;4.57;;;4.18;;
30080;SDS011;16902;50.816;12.828;2023-08-12T17:41:29;2.60;;;2.50;;
30080;SDS011;16902;50.816;12.828;2023-08-12T17:46:31;2.33;;;2.22;;
30080;SDS011;16902;50.816;12.828;2023-08-12T17:51:33;2.80;;;2.70;;
30080;SDS011;16902;50.816;12.828;2023-08-12T17:56:35;2.35;;;2.25;;
30080;SDS011;16902;50.816;12.828;2023-08-12T18:01:37;2.83;;;2.72;;
30080;SDS011;16902;50.816;12.828;2023-08-12T18:06:39;3.00;;;2.90;;
30080;SDS011;16902;50.816;12.828;2023-08-12T18:11:41;3.03;;;2.92;;
30080;SDS011;16902;50.816;12.828;2023-08-12T18:16:42;2.67;;;2.58;;
30080;SDS011;16902;50.816;12.828;2023-08-12T18:21:45;3.17;;;3.08;;
30080;SDS011;16902;50.816;12.828;2023-08-12T18:26:46;2.70;;;2.60;;
30080;SDS011;16902;50.816;12.828;2023-08-12T18:31:48;3.00;;;2.80;;
30080;SDS011;16902;50.816;12.828;2023-08-12T18:36:50;2.97;;;2.88;;
30080;SDS011;16902;50.816;12.828;2023-08-12T18:41:52;2.80;;;2.70;;
30080;SDS011;16902;50.816;12.828;2023-08-12T18:46:54;2.70;;;2.60;;
30080;SDS011;16902;50.816;12.828;2023-08-12T18:51:56;2.85;;;2.75;;
30080;SDS011;16902;50.816;12.828;2023-08-12T18:56:58;3.53;;;3.33;;
30080;SDS011;16902;50.816;12.828;2023-08-12T19:02:00;2.90;;;2.80;;
30080;SDS011;16902;50.816;12.828;2023-08-12T19:07:02;3.38;;;3.17;;
30080;SDS011;16902;50.816;12.828;2023-08-12T19:12:04;3.17;;;3.08;;
30080;SDS011;16902;50.816;12.828;2023-08-12T19:17:06;3.30;;;3.20;;
30080;SDS011;16902;50.816;12.828;2023-08-12T19:22:08;3.42;;;3.33;;
30080;SDS011;16902;50.816;12.828;2023-08-12T19:27:10;3.90;;;3.75;;
30080;SDS011;16902;50.816;12.828;2023-08-12T19:32:12;4.60;;;4.40;;
30080;SDS011;16902;50.816;12.828;2023-08-12T19:37:14;4.10;;;3.90;;
30080;SDS011;16902;50.816;12.828;2023-08-12T19:42:16;4.30;;;4.10;;
30080;SDS011;16902;50.816;12.828;2023-08-12T19:47:19;4.45;;;4.25;;
30080;SDS011;16902;50.816;12.828;2023-08-12T19:52:20;4.57;;;4.38;;
30080;SDS011;16902;50.816;12.828;2023-08-12T19:57:22;4.65;;;4.45;;
30080;SDS011;16902;50.816;12.828;2023-08-12T20:02:27;4.40;;;4.20;;
30080;SDS011;16902;50.816;12.828;2023-08-12T20:07:40;4.43;;;4.22;;
30080;SDS011;16902;50.816;12.828;2023-08-12T20:12:48;4.35;;;4.15;;
30080;SDS011;16902;50.816;12.828;2023-08-12T20:17:50;4.22;;;4.03;;
30080;SDS011;16902;50.816;12.828;2023-08-12T20:22:52;3.95;;;3.75;;
30080;SDS011;16902;50.816;12.828;2023-08-12T20:28:06;3.60;;;3.50;;
30080;SDS011;16902;50.816;12.828;2023-08-12T20:33:08;3.92;;;3.72;;
30080;SDS011;16902;50.816;12.828;2023-08-12T20:38:11;3.80;;;3.60;;
30080;SDS011;16902;50.816;12.828;2023-08-12T20:43:13;3.45;;;3.35;;
30080;SDS011;16902;50.816;12.828;2023-08-12T20:48:15;3.55;;;3.45;;
30080;SDS011;16902;50.816;12.828;2023-08-12T20:53:17;4.97;;;4.50;;
30080;SDS011;16902;50.816;12.828;2023-08-12T20:58:20;3.65;;;3.45;;
30080;SDS011;16902;50.816;12.828;2023-08-12T21:03:22;3.97;;;3.78;;
30080;SDS011;16902;50.816;12.828;2023-08-12T21:08:24;3.55;;;3.45;;
30080;SDS011;16902;50.816;12.828;2023-08-12T21:13:27;3.63;;;3.50;;
30080;SDS011;16902;50.816;12.828;2023-08-12T21:18:29;4.43;;;4.20;;
30080;SDS011;16902;50.816;12.828;2023-08-12T21:23:31;4.03;;;3.83;;
30080;SDS011;16902;50.816;12.828;2023-08-12T21:28:33;4.03;;;3.70;;
30080;SDS011;16902;50.816;12.828;2023-08-12T21:33:35;4.15;;;3.85;;
30080;SDS011;16902;50.816;12.828;2023-08-12T21:38:37;4.10;;;3.90;;
30080;SDS011;16902;50.816;12.828;2023-08-12T21:43:39;4.72;;;4.53;;
30080;SDS011;16902;50.816;12.828;2023-08-12T21:48:41;4.75;;;4.45;;
30080;SDS011;16902;50.816;12.828;2023-08-12T21:53:43;4.47;;;4.25;;
30080;SDS011;16902;50.816;12.828;2023-08-12T21:58:46;4.45;;;4.25;;
30080;SDS011;16902;50.816;12.828;2023-08-12T22:03:49;4.43;;;4.22;;
30080;SDS011;16902;50.816;12.828;2023-08-12T22:08:50;4.07;;;3.97;;
30080;SDS011;16902;50.816;12.828;2023-08-12T22:13:52;4.20;;;4.00;;
30080;SDS011;16902;50.816;12.828;2023-08-12T22:18:54;4.38;;;3.97;;
30080;SDS011;16902;50.816;12.828;2023-08-12T22:23:56;4.72;;;4.32;;
30080;SDS011;16902;50.816;12.828;2023-08-12T22:28:58;4.20;;;4.00;;
30080;SDS011;16902;50.816;12.828;2023-08-12T22:34:00;4.32;;;4.07;;
30080;SDS011;16902;50.816;12.828;2023-08-12T22:39:03;4.05;;;3.85;;
30080;SDS011;16902;50.816;12.828;2023-08-12T22:44:05;4.13;;;3.92;;
30080;SDS011;16902;50.816;12.828;2023-08-12T22:49:07;4.10;;;3.90;;
30080;SDS011;16902;50.816;12.828;2023-08-12T22:54:09;4.63;;;4.43;;
30080;SDS011;16902;50.816;12.828;2023-08-12T22:59:11;4.30;;;4.10;;
30080;SDS011;16902;50.816;12.828;2023-08-12T23:04:13;3.90;;;3.70;;
30080;SDS011;16902;50.816;12.828;2023-08-12T23:09:15;4.20;;;4.00;;
30080;SDS011;16902;50.816;12.828;2023-08-12T23:14:17;3.88;;;3.70;;
30080;SDS011;16902;50.816;12.828;2023-08-12T23:19:19;3.92;;;3.72;;
30080;SDS011;16902;50.816;12.828;2023-08-12T23:24:21;4.00;;;3.70;;
30080;SDS011;16902;50.816;12.828;2023-08-12T23:29:23;4.00;;;3.72;;
30080;SDS011;16902;50.816;12.828;2023-08-12T23:34:25;3.97;;;3.80;;
30080;SDS011;16902;50.816;12.828;2023-08-12T23:39:27;3.60;;;3.50;;
30080;SDS011;16902;50.816;12.828;2023-08-12T23:44:29;4.43;;;4.22;;
30080;SDS011;16902;50.816;12.828;2023-08-12T23:49:30;4.32;;;4.13;;
30080;SDS011;16902;50.816;12.828;2023-08-12T23:54:32;4.00;;;3.80;;
30080;SDS011;16902;50.816;12.828;2023-08-12T23:59:34;4.10;;;3.90;;
